Time;durP1;ratioP1;P1;durP2;ratioP2;P2;SDS_P1;SDS_P2;PMS_P1;PMS_P2;Temp;Humidity;BMP_temperature;BMP_pressure;BME280_temperature;BME280_humidity;BME280_pressure;Samples;Min_cycle;Max_cycle;Signal;HPM_P1;HPM_P2
2021/06/02 00:00:16;;;;;;;22.33;10.30;;;;;;;15.65;56.88;101364.91;5104068;28;20031;-66
2021/06/02 00:02:46;;;;;;;21.33;10.85;;;;;;;15.58;57.36;101364.97;5102751;28;20050;-67
2021/06/02 00:05:12;;;;;;;21.88;10.63;;;;;;;15.60;57.35;101361.41;5104036;28;20474;-67
2021/06/02 00:07:40;;;;;;;23.42;10.98;;;;;;;15.59;57.35;101362.28;5101823;28;20031;-66
2021/06/02 00:10:08;;;;;;;22.83;10.77;;;;;;;15.50;57.89;101357.03;5105226;28;20024;-67
2021/06/02 00:12:34;;;;;;;21.83;10.75;;;;;;;15.44;59.42;101357.09;5101680;28;20052;-68
2021/06/02 00:15:00;;;;;;;22.58;11.10;;;;;;;15.52;58.72;101355.22;5104687;28;20023;-74
2021/06/02 00:17:25;;;;;;;22.60;11.65;;;;;;;15.38;59.19;101366.00;5102291;28;20119;-73
2021/06/02 00:19:51;;;;;;;21.85;10.88;;;;;;;15.30;60.10;101354.50;5103572;28;20119;-74
2021/06/02 00:22:16;;;;;;;21.95;11.38;;;;;;;15.25;59.88;101351.91;5101639;28;20036;-74
2021/06/02 00:24:42;;;;;;;22.30;11.00;;;;;;;15.24;59.76;101352.78;5102386;28;20383;-74
2021/06/02 00:27:10;;;;;;;21.50;11.20;;;;;;;15.16;59.88;101355.50;5104365;28;20031;-74
2021/06/02 00:29:37;;;;;;;21.92;11.38;;;;;;;15.16;60.02;101351.97;5101230;28;20032;-72
2021/06/02 00:32:05;;;;;;;23.25;11.38;;;;;;;15.03;60.30;101350.25;5104877;28;20406;-74
2021/06/02 00:34:31;;;;;;;22.50;11.30;;;;;;;14.99;60.98;101346.75;5097009;28;20352;-64
2021/06/02 00:37:01;;;;;;;22.25;11.82;;;;;;;15.04;60.84;101349.38;5104322;28;20023;-65
2021/06/02 00:39:27;;;;;;;22.65;11.55;;;;;;;14.93;60.68;101339.66;5101648;28;20024;-65
2021/06/02 00:41:54;;;;;;;23.55;11.88;;;;;;;14.87;60.93;101345.03;5102936;28;20030;-66
2021/06/02 00:44:21;;;;;;;22.20;12.05;;;;;;;14.78;61.80;101342.41;5103482;28;20382;-64
2021/06/02 00:46:47;;;;;;;22.80;12.18;;;;;;;14.73;61.85;101330.91;5106975;28;20089;-64
2021/06/02 00:49:16;;;;;;;23.88;13.13;;;;;;;14.70;60.08;101344.25;5107843;28;20382;-64
2021/06/02 00:51:41;;;;;;;23.60;12.68;;;;;;;14.74;60.50;101327.38;5106213;28;20028;-64
2021/06/02 00:54:08;;;;;;;24.60;13.30;;;;;;;14.73;60.22;101338.91;5108643;28;20077;-65
2021/06/02 00:56:41;;;;;;;24.58;13.35;;;;;;;14.65;60.39;101338.94;5105192;28;20032;-65
2021/06/02 00:59:08;;;;;;;24.02;13.30;;;;;;;14.73;60.82;101338.91;5101725;28;20027;-65
2021/06/02 01:01:34;;;;;;;22.88;12.70;;;;;;;14.63;61.96;101340.72;5108458;28;20031;-65
2021/06/02 01:04:04;;;;;;;23.88;12.10;;;;;;;14.52;62.29;101338.06;5105429;28;20049;-65
2021/06/02 01:06:34;;;;;;;22.55;11.85;;;;;;;14.51;63.04;101333.63;5108203;28;20016;-65
2021/06/02 01:09:02;;;;;;;23.58;12.10;;;;;;;14.52;62.32;101331.84;5104974;27;20028;-65
2021/06/02 01:11:29;;;;;;;22.67;11.93;;;;;;;14.43;62.82;101333.69;5108060;28;20069;-65
2021/06/02 01:13:59;;;;;;;23.45;12.35;;;;;;;14.41;62.71;101335.44;5105730;28;20032;-65
2021/06/02 01:16:32;;;;;;;22.25;11.82;;;;;;;14.39;62.77;101331.03;5107299;28;20034;-64
2021/06/02 01:18:57;;;;;;;;;;;;;;;14.51;59.36;101338.09;5105581;28;20024;-64
2021/06/02 01:21:26;;;;;;;22.80;12.45;;;;;;;14.38;62.31;101331.91;5107181;28;20316;-74
2021/06/02 01:23:56;;;;;;;24.60;12.07;;;;;;;14.42;61.87;101320.38;5105822;28;20420;-73
2021/06/02 01:26:23;;;;;;;22.25;11.73;;;;;;;14.45;62.22;101323.91;5106738;28;20027;-74
2021/06/02 01:28:50;;;;;;;22.15;11.65;;;;;;;14.30;63.11;101327.50;5106238;27;20394;-73
2021/06/02 01:31:33;;;;;;;22.38;10.90;;;;;;;14.11;62.64;101328.44;5105916;28;20020;-73
2021/06/02 01:34:13;;;;;;;;;;;;;;;14.21;59.92;101316.91;5105285;28;20110;-73
2021/06/02 01:36:58;;;;;;;22.25;11.15;;;;;;;13.99;61.82;101321.38;5107753;28;19911;-71
2021/06/02 01:39:56;;;;;;;21.83;10.93;;;;;;;13.95;62.20;101319.66;5106779;28;20031;-73
2021/06/02 01:42:32;;;;;;;22.02;10.90;;;;;;;13.83;63.83;101330.28;5104758;28;20395;-74
2021/06/02 01:45:19;;;;;;;23.10;11.68;;;;;;;13.78;62.69;101322.31;5104732;28;20020;-74
2021/06/02 01:48:13;;;;;;;22.98;12.00;;;;;;;13.78;62.88;101322.31;5102995;28;20034;-72
2021/06/02 01:51:26;;;;;;;23.30;12.15;;;;;;;13.76;63.41;101321.41;5058728;28;20037;-72
2021/06/02 01:54:00;;;;;;;23.73;12.55;;;;;;;13.82;63.45;101326.75;5023811;28;20132;-73
2021/06/02 01:57:21;;;;;;;23.30;13.13;;;;;;;13.74;62.39;101323.19;5021777;28;20096;-73
2021/06/02 02:00:24;;;;;;;25.73;13.35;;;;;;;13.77;63.03;101332.06;4954828;29;20040;-73
2021/06/02 02:03:17;;;;;;;24.25;13.38;;;;;;;13.75;63.33;101317.00;4953484;29;20050;-74
2021/06/02 02:06:26;;;;;;;23.38;12.73;;;;;;;13.67;63.56;101321.44;4952277;29;20126;-67
2021/06/02 02:09:18;;;;;;;25.38;14.50;;;;;;;13.56;63.28;101317.03;4953485;29;20043;-73
2021/06/02 02:11:44;;;;;;;24.92;14.55;;;;;;;13.62;64.61;101320.56;4952476;29;20039;-74
2021/06/02 02:14:40;;;;;;;24.45;14.65;;;;;;;13.53;63.52;101317.03;4954601;29;20070;-73
2021/06/02 02:17:37;;;;;;;25.90;14.82;;;;;;;13.56;64.53;101322.34;4951257;29;20098;-75
2021/06/02 02:20:33;;;;;;;23.80;14.57;;;;;;;13.50;63.26;101319.69;4954559;29;20521;-73
2021/06/02 02:23:01;;;;;;;24.92;14.45;;;;;;;13.48;65.23;101324.09;4954428;29;20051;-73
2021/06/02 02:26:01;;;;;;;24.60;14.43;;;;;;;13.41;64.49;101323.22;4954593;29;20035;-74
2021/06/02 02:28:32;;;;;;;25.55;15.27;;;;;;;13.29;65.49;101320.50;4975569;28;20034;-73
2021/06/02 02:31:23;;;;;;;24.92;13.95;;;;;;;13.20;65.09;101324.06;4984357;28;20456;-74
2021/06/02 02:34:04;;;;;;;23.95;14.40;;;;;;;13.11;65.85;101326.69;5005836;28;20121;-74
2021/06/02 02:36:46;;;;;;;24.02;14.57;;;;;;;13.16;65.65;101329.34;5047601;28;20028;-73
2021/06/02 02:39:20;;;;;;;25.02;14.75;;;;;;;13.13;66.44;101330.22;5100890;28;20024;-71
2021/06/02 02:42:04;;;;;;;24.67;14.30;;;;;;;13.06;65.83;101325.78;5105376;28;20474;-74
2021/06/02 02:44:36;;;;;;;23.50;13.73;;;;;;;12.87;67.36;101328.44;5106634;28;20458;-74
2021/06/02 02:47:24;;;;;;;26.20;13.68;;;;;;;12.79;68.41;101321.34;5103018;28;20540;-73
2021/06/02 02:50:11;;;;;;;24.77;13.77;;;;;;;12.70;68.00;101323.06;5041899;28;20041;-73
2021/06/02 02:53:02;;;;;;;26.85;14.48;;;;;;;12.63;69.41;101331.00;5052293;28;20053;-73
2021/06/02 02:55:30;;;;;;;26.05;14.98;;;;;;;12.53;70.07;101325.66;5051996;28;20045;-65
2021/06/02 02:58:16;;;;;;;25.90;14.70;;;;;;;12.61;68.73;101328.34;5052229;28;20028;-64
2021/06/02 03:00:58;;;;;;;24.80;14.48;;;;;;;12.72;71.06;101320.41;5052160;28;20044;-65
2021/06/02 03:03:39;;;;;;;24.65;14.73;;;;;;;12.57;71.09;101329.22;5052083;28;20032;-64
2021/06/02 03:06:15;;;;;;;26.25;15.00;;;;;;;12.63;70.08;101333.66;5048278;28;20033;-64
2021/06/02 03:09:02;;;;;;;26.10;15.30;;;;;;;12.64;69.23;101338.06;5050812;28;20037;-65
2021/06/02 03:11:45;;;;;;;25.40;15.13;;;;;;;12.48;70.11;101335.38;5051832;28;20102;-65
2021/06/02 03:14:16;;;;;;;25.52;15.48;;;;;;;12.44;70.37;101336.22;5052151;28;20480;-65
2021/06/02 03:16:52;;;;;;;26.00;15.82;;;;;;;12.44;70.95;101340.66;5051507;28;20025;-64
2021/06/02 03:19:23;;;;;;;26.25;15.43;;;;;;;12.37;71.38;101345.03;5051374;28;20112;-65
2021/06/02 03:22:10;;;;;;;26.65;15.57;;;;;;;12.37;70.58;101345.03;5051464;28;20037;-64
2021/06/02 03:24:54;;;;;;;27.30;15.88;;;;;;;12.26;71.48;101336.13;5048012;28;20028;-65
2021/06/02 03:27:31;;;;;;;27.38;16.30;;;;;;;12.29;71.21;101344.09;5085194;28;20069;-65
2021/06/02 03:30:20;;;;;;;26.42;15.73;;;;;;;12.33;70.62;101346.78;5103060;27;20031;-64
2021/06/02 03:33:00;;;;;;;25.52;15.60;;;;;;;12.34;71.90;101345.03;5101077;28;20035;-64
2021/06/02 03:35:44;;;;;;;25.40;15.75;;;;;;;12.31;71.33;101355.63;5103278;28;20393;-64
2021/06/02 03:38:47;;;;;;;26.73;16.88;;;;;;;12.27;71.33;101353.81;5099235;28;20032;-64
2021/06/02 03:41:34;;;;;;;27.70;16.65;;;;;;;12.28;71.53;101359.13;5099775;28;20386;-65
2021/06/02 03:44:16;;;;;;;25.58;16.63;;;;;;;12.33;71.48;101356.50;5102278;28;20073;-65
2021/06/02 03:46:56;;;;;;;29.48;17.40;;;;;;;12.40;71.58;101352.13;5104898;28;20055;-65
2021/06/02 03:50:00;;;;;;;28.50;17.40;;;;;;;12.41;70.43;101346.81;5104076;28;20450;-65
2021/06/02 03:52:47;;;;;;;27.33;16.50;;;;;;;12.46;71.37;101339.75;5103442;28;20081;-64
2021/06/02 03:55:41;;;;;;;26.27;16.30;;;;;;;12.45;71.60;101340.66;5099800;28;20386;-65
2021/06/02 03:58:14;;;;;;;27.80;16.52;;;;;;;12.39;72.50;101332.66;5098003;28;20020;-65
2021/06/02 04:01:03;;;;;;;27.15;16.88;;;;;;;12.43;72.33;101338.88;5104728;28;20043;-65
2021/06/02 04:03:46;;;;;;;26.70;16.15;;;;;;;12.49;72.48;101338.91;5103111;28;20500;-65
2021/06/02 04:06:23;;;;;;;26.85;16.15;;;;;;;12.48;72.58;101337.13;5099308;28;20025;-65
2021/06/02 04:08:59;;;;;;;27.00;16.30;;;;;;;12.47;72.36;101338.00;5103781;28;20031;-65
2021/06/02 04:11:33;;;;;;;26.17;15.95;;;;;;;12.51;72.41;101338.03;5103704;28;20028;-65
2021/06/02 04:14:01;;;;;;;25.88;16.88;;;;;;;12.46;74.10;101342.41;5102118;28;20034;-65
2021/06/02 04:16:42;;;;;;;26.77;17.60;;;;;;;12.48;72.86;101338.03;5103739;28;20028;-65
2021/06/02 04:19:08;;;;;;;27.10;17.00;;;;;;;12.53;74.05;101336.25;5097495;28;20028;-64
2021/06/02 04:21:38;;;;;;;27.38;17.17;;;;;;;12.58;73.91;101335.41;5104748;28;20119;-65
2021/06/02 04:24:07;;;;;;;27.33;17.75;;;;;;;12.63;73.64;101342.50;5097428;28;20024;-65
2021/06/02 04:26:34;;;;;;;26.50;16.75;;;;;;;12.67;72.95;101336.31;5104975;28;20031;-65
2021/06/02 04:29:01;;;;;;;28.77;17.38;;;;;;;12.69;73.30;101336.31;5101924;28;20412;-64
2021/06/02 04:31:29;;;;;;;27.92;17.83;;;;;;;12.80;72.55;101334.59;5104131;28;20020;-65
2021/06/02 04:33:57;;;;;;;28.67;17.15;;;;;;;12.81;72.96;101330.16;5102511;28;20042;-65
2021/06/02 04:36:26;;;;;;;28.27;18.05;;;;;;;12.80;73.52;101333.69;5103368;28;20099;-64
2021/06/02 04:38:57;;;;;;;28.92;18.20;;;;;;;12.93;72.72;101334.63;5102814;28;20028;-65
2021/06/02 04:41:25;;;;;;;28.55;18.25;;;;;;;12.96;73.03;101332.88;5103380;28;20031;-65
2021/06/02 04:43:52;;;;;;;27.75;18.38;;;;;;;13.01;73.04;101341.72;5102687;28;20041;-65
2021/06/02 04:46:19;;;;;;;28.30;18.73;;;;;;;13.04;73.20;101338.19;5102345;28;20471;-65
2021/06/02 04:48:46;;;;;;;29.40;18.98;;;;;;;13.05;73.54;101335.53;5103693;28;20484;-65
2021/06/02 04:52:00;;;;;;;29.40;19.10;;;;;;;13.12;71.99;101340.84;5101329;28;20028;-65
2021/06/02 04:54:46;;;;;;;28.60;19.40;;;;;;;13.21;71.67;101338.22;5102356;28;20024;-65
2021/06/02 04:57:33;;;;;;;29.77;18.70;;;;;;;13.33;72.13;101334.69;5098381;28;20039;-65
2021/06/02 05:00:26;;;;;;;28.63;19.00;;;;;;;13.40;71.35;101331.19;5101343;28;20036;-65
2021/06/02 05:03:13;;;;;;;28.60;17.95;;;;;;;13.45;72.67;101345.34;5101074;28;20032;-65
2021/06/02 05:05:38;;;;;;;30.35;18.70;;;;;;;13.47;73.63;101334.72;5097384;28;20107;-65
2021/06/02 05:08:41;;;;;;;30.00;18.35;;;;;;;13.60;73.20;101339.13;5096927;28;20428;-65
2021/06/02 05:11:09;;;;;;;28.90;18.50;;;;;;;13.64;73.02;101337.38;5096965;28;20035;-65
2021/06/02 05:14:25;;;;;;;28.33;18.27;;;;;;;13.70;71.76;101340.03;5096899;28;20056;-65
2021/06/02 05:17:09;;;;;;;30.15;18.73;;;;;;;13.79;72.15;101340.03;5029932;28;20104;-65
2021/06/02 05:20:16;;;;;;;29.73;19.02;;;;;;;13.89;72.11;101333.81;5029913;28;20428;-65
2021/06/02 05:23:09;;;;;;;29.70;19.15;;;;;;;13.98;71.75;101334.69;5030359;28;20053;-67
2021/06/02 05:26:09;;;;;;;28.50;18.83;;;;;;;14.08;72.11;101340.00;5027870;28;20038;-73
2021/06/02 05:29:12;;;;;;;29.42;19.23;;;;;;;14.16;71.42;101339.09;5027128;28;20076;-65
2021/06/02 05:32:13;;;;;;;30.60;19.00;;;;;;;14.22;71.30;101331.09;5029801;28;20072;-70
2021/06/02 05:35:12;;;;;;;29.02;18.40;;;;;;;14.34;71.09;101338.13;5032235;28;20112;-64
2021/06/02 05:38:15;;;;;;;31.15;19.08;;;;;;;14.40;70.28;101335.44;5031759;28;20045;-64
2021/06/02 05:41:02;;;;;;;29.95;17.83;;;;;;;14.52;69.20;101343.41;5032039;28;20412;-63
2021/06/02 05:44:02;;;;;;;28.17;18.52;;;;;;;14.61;69.29;101332.72;5031928;28;20076;-64
2021/06/02 05:47:01;;;;;;;29.15;18.45;;;;;;;14.67;69.40;101330.94;5031525;28;20653;-63
2021/06/02 05:49:45;;;;;;;29.65;18.27;;;;;;;14.81;68.69;101329.09;5029778;28;20040;-64
2021/06/02 05:52:34;;;;;;;29.67;18.33;;;;;;;14.93;68.46;101330.81;5060790;28;20032;-65
2021/06/02 05:55:24;;;;;;;31.13;18.52;;;;;;;15.05;68.79;101327.19;5093073;28;20024;-64
2021/06/02 05:58:20;;;;;;;27.23;16.65;;;;;;;15.17;66.46;101340.41;5093373;28;20379;-64
2021/06/02 06:01:13;;;;;;;28.02;16.63;;;;;;;15.33;65.48;101335.84;5093267;28;20077;-63
2021/06/02 06:03:54;;;;;;;27.02;16.35;;;;;;;15.39;64.51;101333.16;5093308;28;20039;-64
2021/06/02 06:06:42;;;;;;;27.23;16.58;;;;;;;15.48;64.19;101338.41;5093137;28;21527;-64
2021/06/02 06:09:29;;;;;;;27.58;16.00;;;;;;;15.61;63.35;101339.19;5094403;28;20054;-64
2021/06/02 06:12:16;;;;;;;29.23;16.25;;;;;;;15.75;63.12;101338.19;5095363;28;20059;-67
2021/06/02 06:15:08;;;;;;;27.10;15.85;;;;;;;15.83;62.49;101339.91;5093311;28;20028;-68
2021/06/02 06:18:19;;;;;;;27.40;15.38;;;;;;;15.89;62.42;101349.63;5092363;28;20111;-65
2021/06/02 06:21:02;;;;;;;27.77;15.98;;;;;;;15.98;61.95;101338.00;5091981;28;20070;-66
2021/06/02 06:23:49;;;;;;;26.27;15.73;;;;;;;16.06;61.83;101329.91;5094899;28;20466;-67
2021/06/02 06:26:21;;;;;;;27.75;15.93;;;;;;;16.15;61.39;101335.13;5093725;28;20036;-66
2021/06/02 06:29:17;;;;;;;28.73;16.30;;;;;;;16.32;61.89;101325.13;5091979;28;20066;-67
2021/06/02 06:31:51;;;;;;;27.00;15.18;;;;;;;16.46;61.60;101329.44;5094935;28;20046;-69
2021/06/02 06:34:23;;;;;;;27.52;15.27;;;;;;;16.61;59.90;101331.91;5091983;28;20428;-67
2021/06/02 06:36:52;;;;;;;26.90;14.70;;;;;;;16.73;60.04;101331.75;5091146;28;20028;-67
2021/06/02 06:39:27;;;;;;;26.55;14.60;;;;;;;16.80;59.79;101326.31;5093801;28;20081;-68
2021/06/02 06:41:54;;;;;;;25.90;13.73;;;;;;;16.85;58.10;101320.03;5093955;28;20034;-68
2021/06/02 06:44:22;;;;;;;25.98;14.15;;;;;;;16.97;57.86;101324.34;5092681;28;20064;-66
2021/06/02 06:46:51;;;;;;;25.42;13.95;;;;;;;17.09;58.89;101331.28;5095043;28;20544;-67
2021/06/02 06:49:18;;;;;;;24.48;13.13;;;;;;;17.20;57.63;101325.78;5093821;28;20380;-66
2021/06/02 06:51:52;;;;;;;25.25;13.18;;;;;;;17.31;57.29;101331.81;5093642;28;20048;-65
2021/06/02 06:54:18;;;;;;;25.45;14.10;;;;;;;17.42;57.30;101329.88;5094945;28;20020;-65
2021/06/02 06:56:45;;;;;;;26.20;15.02;;;;;;;17.53;57.30;101326.13;5093018;28;20067;-65
2021/06/02 06:59:10;;;;;;;25.92;15.40;;;;;;;17.65;58.13;101330.38;5093761;28;20024;-65
2021/06/02 07:01:39;;;;;;;27.60;15.20;;;;;;;17.72;56.35;101322.25;5093499;28;20024;-73
2021/06/02 07:04:06;;;;;;;27.02;15.88;;;;;;;17.83;56.85;101315.81;5092535;28;20085;-66
2021/06/02 07:06:32;;;;;;;26.67;15.95;;;;;;;17.91;56.54;101320.16;5091992;28;20398;-65
2021/06/02 07:08:58;;;;;;;27.88;16.67;;;;;;;18.04;56.23;101326.16;5092852;28;20020;-67
2021/06/02 07:11:25;;;;;;;26.25;15.98;;;;;;;18.16;56.28;101325.03;5092815;28;20141;-65
2021/06/02 07:13:51;;;;;;;27.95;16.70;;;;;;;18.28;56.09;101321.22;5094185;28;20020;-65
2021/06/02 07:16:18;;;;;;;27.52;16.25;;;;;;;18.37;54.92;101321.03;5092871;28;20024;-65
2021/06/02 07:18:45;;;;;;;26.65;15.95;;;;;;;18.47;54.47;101324.41;5092893;28;20032;-73
2021/06/02 07:21:12;;;;;;;25.60;15.88;;;;;;;18.59;54.89;101312.56;5084476;28;21238;-66
2021/06/02 07:23:39;;;;;;;27.15;16.55;;;;;;;18.71;54.66;101317.66;5093266;28;20077;-74
2021/06/02 07:26:04;;;;;;;27.40;15.88;;;;;;;18.78;53.66;101319.25;5091280;28;20032;-78
2021/06/02 07:28:35;;;;;;;26.10;15.57;;;;;;;18.93;53.55;101322.53;5090754;28;20023;-64
2021/06/02 07:31:01;;;;;;;28.48;16.52;;;;;;;19.10;52.68;101323.03;5084957;28;20356;-65
2021/06/02 07:33:26;;;;;;;25.27;14.90;;;;;;;19.19;52.02;101321.06;5087060;28;20019;-64
2021/06/02 07:35:52;;;;;;;25.88;15.35;;;;;;;19.23;52.81;101322.75;5089968;28;20020;-65
2021/06/02 07:38:17;;;;;;;26.65;14.20;;;;;;;19.40;53.25;101322.34;5092067;28;20120;-64
2021/06/02 07:40:43;;;;;;;25.02;14.77;;;;;;;19.49;52.22;101330.16;5091749;28;20118;-64
2021/06/02 07:43:08;;;;;;;26.23;14.80;;;;;;;19.57;51.51;101328.16;5090559;28;20090;-64
2021/06/02 07:45:34;;;;;;;26.65;15.27;;;;;;;19.67;50.99;101329.69;5088857;28;20528;-65
2021/06/02 07:47:59;;;;;;;25.45;14.80;;;;;;;19.83;51.53;101330.19;5089484;28;20099;-64
2021/06/02 07:50:25;;;;;;;27.60;15.52;;;;;;;19.95;49.71;101336.13;5088823;28;20103;-64
2021/06/02 07:52:50;;;;;;;25.42;15.23;;;;;;;19.97;51.13;101331.63;5090626;28;20106;-64
2021/06/02 07:55:15;;;;;;;25.80;14.98;;;;;;;20.18;50.36;101330.13;5089123;28;20038;-64
2021/06/02 07:57:41;;;;;;;25.33;14.40;;;;;;;20.35;50.10;101327.84;5085628;28;20085;-64
2021/06/02 08:00:07;;;;;;;27.02;15.55;;;;;;;20.51;49.60;101333.66;5089271;28;20147;-63
2021/06/02 08:02:32;;;;;;;24.55;12.93;;;;;;;20.68;47.64;101318.91;5089405;28;20111;-63
2021/06/02 08:04:57;;;;;;;24.08;12.20;;;;;;;20.75;47.33;101322.25;5086539;28;20382;-69
2021/06/02 08:07:23;;;;;;;25.00;12.23;;;;;;;20.87;47.12;101319.22;5089381;28;20437;-70
2021/06/02 08:09:50;;;;;;;23.83;12.93;;;;;;;21.08;46.86;101320.31;5087637;28;20456;-67
2021/06/02 08:12:15;;;;;;;25.67;12.57;;;;;;;21.27;46.71;101322.41;5086580;28;20028;-67
2021/06/02 08:14:41;;;;;;;25.15;13.45;;;;;;;21.42;46.07;101325.47;5095058;28;20026;-71
2021/06/02 08:17:07;;;;;;;24.48;12.40;;;;;;;21.62;46.29;101323.94;5091229;28;20016;-72
2021/06/02 08:19:32;;;;;;;24.25;12.40;;;;;;;21.73;45.61;101321.78;5090180;28;20020;-70
2021/06/02 08:21:57;;;;;;;24.60;12.20;;;;;;;21.86;44.49;101326.75;5096031;28;20030;-72
2021/06/02 08:24:23;;;;;;;23.80;12.68;;;;;;;21.94;44.56;101327.31;5094707;28;20506;-72
2021/06/02 08:26:49;;;;;;;24.77;11.80;;;;;;;22.05;41.85;101325.13;5091946;28;20051;-64
2021/06/02 08:29:14;;;;;;;23.77;10.70;;;;;;;22.23;42.95;101318.19;5091331;28;20073;-64
2021/06/02 08:31:39;;;;;;;24.35;11.32;;;;;;;22.35;44.00;101324.09;5089310;28;20023;-65
2021/06/02 08:34:05;;;;;;;24.00;11.20;;;;;;;22.44;41.81;101319.25;5091532;28;20035;-64
2021/06/02 08:36:31;;;;;;;22.83;10.18;;;;;;;22.65;42.40;101322.06;5093408;28;20030;-65
2021/06/02 08:38:57;;;;;;;20.33;9.18;;;;;;;22.77;38.88;101310.78;5090546;28;20024;-65
2021/06/02 08:41:22;;;;;;;21.42;8.73;;;;;;;23.01;39.88;101318.84;5092204;28;20063;-65
2021/06/02 08:43:49;;;;;;;21.38;9.10;;;;;;;23.16;38.83;101322.78;5090841;28;20079;-66
2021/06/02 08:46:15;;;;;;;22.30;9.00;;;;;;;23.30;39.76;101320.38;5093584;28;20423;-65
2021/06/02 08:48:48;;;;;;;20.38;8.70;;;;;;;23.50;38.60;101327.66;5092649;28;20432;-67
2021/06/02 08:51:15;;;;;;;21.42;8.50;;;;;;;23.68;38.25;101323.28;5091530;28;20107;-64
2021/06/02 08:53:40;;;;;;;21.08;8.50;;;;;;;23.87;36.96;101327.91;5091540;28;20391;-65
2021/06/02 08:56:06;;;;;;;20.27;7.60;;;;;;;23.96;36.84;101324.78;5091511;28;20023;-65
2021/06/02 08:58:31;;;;;;;19.95;5.70;;;;;;;24.15;33.75;101315.88;5091109;28;20043;-65
2021/06/02 09:00:57;;;;;;;17.08;5.97;;;;;;;24.30;33.14;101323.28;5090029;28;20466;-65
2021/06/02 09:03:23;;;;;;;19.85;5.70;;;;;;;24.47;31.69;101319.78;5092178;28;20480;-65
2021/06/02 09:05:49;;;;;;;18.20;5.88;;;;;;;24.59;31.09;101322.88;5091686;28;20546;-65
2021/06/02 09:08:18;;;;;;;18.02;6.30;;;;;;;24.41;32.61;101325.50;5095060;28;20099;-65
2021/06/02 09:10:45;;;;;;;16.50;5.63;;;;;;;24.64;32.33;101324.47;5096436;28;20029;-65
2021/06/02 09:13:17;;;;;;;18.13;6.15;;;;;;;24.64;33.47;101332.56;5094455;28;20542;-65
2021/06/02 09:15:49;;;;;;;19.42;7.05;;;;;;;24.62;32.82;101328.16;5095404;28;20078;-65
2021/06/02 09:18:16;;;;;;;;;;;;;;;24.73;32.05;101316.84;5099958;28;20024;-65
2021/06/02 09:20:45;;;;;;;19.23;6.80;;;;;;;24.93;33.67;101321.28;5094467;28;19993;-65
2021/06/02 09:23:51;;;;;;;18.80;6.90;;;;;;;25.02;32.62;101324.44;5095405;28;20024;-65
2021/06/02 09:26:18;;;;;;;16.55;5.93;;;;;;;24.97;30.38;101315.66;5053341;28;20480;-65
2021/06/02 09:29:10;;;;;;;18.20;6.43;;;;;;;25.02;30.10;101318.16;5053057;28;20042;-64
2021/06/02 09:31:37;;;;;;;18.67;6.00;;;;;;;25.22;29.92;101318.06;5051644;28;20123;-65
2021/06/02 09:34:22;;;;;;;17.25;6.07;;;;;;;25.47;29.86;101310.53;5053354;28;20498;-65
2021/06/02 09:36:51;;;;;;;18.58;6.05;;;;;;;25.74;30.49;101313.66;5053303;28;20159;-65
2021/06/02 09:39:22;;;;;;;17.50;5.75;;;;;;;25.99;29.28;101315.09;5053231;28;20037;-65
2021/06/02 09:41:54;;;;;;;18.15;5.93;;;;;;;26.15;27.94;101304.34;5053287;28;20044;-65
2021/06/02 09:44:27;;;;;;;16.17;5.60;;;;;;;25.89;28.95;101311.97;5049120;28;20124;-65
2021/06/02 09:47:07;;;;;;;17.75;5.72;;;;;;;25.76;28.96;101300.91;5053371;28;20025;-65
2021/06/02 09:50:04;;;;;;;17.90;5.50;;;;;;;25.95;29.12;101306.25;5053281;28;20474;-65
2021/06/02 09:52:41;;;;;;;18.80;5.40;;;;;;;26.23;28.85;101300.25;4994059;28;20568;-65
2021/06/02 09:55:14;;;;;;;19.13;5.95;;;;;;;26.60;28.17;101308.19;4993965;28;20038;-65
2021/06/02 09:57:40;;;;;;;17.88;5.82;;;;;;;26.83;28.10;101303.34;5048228;28;20041;-66
2021/06/02 10:00:08;;;;;;;23.73;10.43;;;;;;;27.31;27.10;101298.75;5062929;28;20232;-65
2021/06/02 10:02:33;;;;;;;17.65;5.20;;;;;;;27.97;24.91;101299.34;5063418;28;20040;-65
2021/06/02 10:05:06;;;;;;;18.10;5.18;;;;;;;29.35;23.58;101299.59;5062209;28;20033;-65
2021/06/02 10:07:34;;;;;;;15.32;5.18;;;;;;;31.02;21.00;101301.44;5063724;28;20031;-65
2021/06/02 10:10:11;;;;;;;17.92;5.70;;;;;;;32.21;20.67;101306.00;5062018;28;20063;-65
2021/06/02 10:12:37;;;;;;;17.73;5.68;;;;;;;32.79;19.86;101301.25;5062786;28;20036;-65
2021/06/02 10:15:05;;;;;;;16.63;5.57;;;;;;;33.68;18.72;101300.22;5062149;28;20484;-65
2021/06/02 10:17:33;;;;;;;14.25;5.10;;;;;;;33.66;18.60;101300.34;5053923;28;20545;-65
2021/06/02 10:20:11;;;;;;;14.25;4.90;;;;;;;33.94;18.47;101297.13;5061442;28;20600;-65
2021/06/02 10:22:39;;;;;;;16.38;4.78;;;;;;;34.50;17.52;101290.31;5061713;28;20029;-66
2021/06/02 10:25:07;;;;;;;15.73;4.97;;;;;;;34.46;17.40;101294.38;5062699;28;20036;-66
2021/06/02 10:27:32;;;;;;;16.65;5.38;;;;;;;34.42;17.34;101290.16;5074389;28;20063;-66
2021/06/02 10:29:57;;;;;;;18.60;5.32;;;;;;;34.61;17.25;101301.19;5104052;28;20051;-66
2021/06/02 10:32:24;;;;;;;15.98;4.88;;;;;;;35.78;16.85;101304.09;5106351;28;20072;-65
2021/06/02 10:34:53;;;;;;;15.18;5.22;;;;;;;36.57;15.70;101296.47;5103019;28;20518;-66
2021/06/02 10:37:21;;;;;;;14.98;5.10;;;;;;;35.96;15.56;101284.09;5099005;28;20481;-66
2021/06/02 10:40:03;;;;;;;16.77;5.00;;;;;;;35.92;16.10;101290.91;5106442;28;20034;-66
2021/06/02 10:42:33;;;;;;;18.45;5.50;;;;;;;35.98;15.99;101295.81;5101643;28;20028;-78
2021/06/02 10:45:10;;;;;;;16.35;4.95;;;;;;;36.89;15.86;101292.41;5104922;28;20483;-77
2021/06/02 10:47:36;;;;;;;15.63;5.10;;;;;;;37.25;15.21;101284.22;5104467;28;20035;-66
2021/06/02 10:50:01;;;;;;;16.55;5.40;;;;;;;37.63;14.97;101290.38;5088792;28;20040;-66
2021/06/02 10:52:41;;;;;;;15.10;4.90;;;;;;;38.49;14.33;101290.56;5092628;28;20028;-77
2021/06/02 10:55:38;;;;;;;16.73;5.30;;;;;;;38.49;14.01;101288.69;5093630;28;20044;-77
2021/06/02 10:58:18;;;;;;;14.90;5.05;;;;;;;38.80;14.08;101284.53;5091468;28;20021;-74
2021/06/02 11:00:45;;;;;;;15.30;4.90;;;;;;;37.83;13.21;101288.28;5091431;28;20510;-65
2021/06/02 11:03:27;;;;;;;12.93;4.55;;;;;;;37.44;13.93;101277.66;5093312;28;20035;-64
2021/06/02 11:06:13;;;;;;;14.57;5.20;;;;;;;37.03;14.42;101270.84;5093483;28;20109;-65
2021/06/02 11:09:05;;;;;;;16.60;4.57;;;;;;;36.69;13.81;101277.88;5092611;28;20024;-66
2021/06/02 11:11:37;;;;;;;;;;;;;;;37.71;14.86;101284.06;5046850;28;20609;-67
2021/06/02 11:14:14;;;;;;;13.98;4.60;;;;;;;38.37;14.51;101278.97;5048799;28;20058;-67
2021/06/02 11:16:44;;;;;;;15.90;4.20;;;;;;;38.88;12.67;101279.00;5048338;28;20447;-75
2021/06/02 11:19:14;;;;;;;13.93;4.45;;;;;;;38.67;12.43;101277.56;5047410;28;20025;-67
2021/06/02 11:21:52;;;;;;;12.75;4.30;;;;;;;37.73;12.98;101275.66;5046975;28;20029;-74
2021/06/02 11:24:33;;;;;;;12.35;4.57;;;;;;;37.47;13.39;101276.44;5038416;28;20486;-77
2021/06/02 11:27:10;;;;;;;15.82;4.38;;;;;;;38.50;13.59;101273.84;5049139;28;20041;-80
2021/06/02 11:29:36;;;;;;;12.93;4.40;;;;;;;39.02;12.29;101266.44;5048208;28;20045;-74
2021/06/02 11:32:26;;;;;;;14.13;4.32;;;;;;;39.56;13.38;101260.41;5048803;28;20426;-76
2021/06/02 11:34:53;;;;;;;14.75;4.30;;;;;;;40.28;12.25;101264.28;5044253;28;20060;-78
2021/06/02 11:37:24;;;;;;;14.65;4.53;;;;;;;39.46;11.72;101271.66;5049635;28;20048;-74
2021/06/02 11:39:51;;;;;;;;;;;;;;;39.88;12.20;101270.59;5049394;28;20029;-77
2021/06/02 11:42:52;;;;;;;20.40;5.38;;;;;;;39.26;12.05;101265.59;5049858;28;20477;-71
2021/06/02 11:45:21;;;;;;;16.23;4.40;;;;;;;38.95;11.87;101270.91;5045252;28;20381;-68
2021/06/02 11:47:52;;;;;;;12.60;4.38;;;;;;;40.06;12.15;101269.53;5058427;28;20047;-75
2021/06/02 11:50:19;;;;;;;14.45;4.38;;;;;;;40.84;11.20;101267.81;5096784;28;20061;-76